sensor_id;sensor_type;location;lat;lon;timestamp;temperature;humidity
59148;DHT22;44930;52.878;6.168;2023-06-22T00:02:17;16.80;99.90
59148;DHT22;44930;52.878;6.168;2023-06-22T00:04:43;17.10;99.90
59148;DHT22;44930;52.878;6.168;2023-06-22T00:07:08;16.70;99.90
59148;DHT22;44930;52.878;6.168;2023-06-22T00:09:34;16.60;99.90
59148;DHT22;44930;52.878;6.168;2023-06-22T00:11:59;16.90;99.90
59148;DHT22;44930;52.878;6.168;2023-06-22T00:14:25;17.10;99.90
59148;DHT22;44930;52.878;6.168;2023-06-22T00:16:51;16.80;99.90
59148;DHT22;44930;52.878;6.168;2023-06-22T00:19:20;16.20;99.90
59148;DHT22;44930;52.878;6.168;2023-06-22T00:21:47;16.70;99.90
59148;DHT22;44930;52.878;6.168;2023-06-22T00:24:13;16.30;99.90
59148;DHT22;44930;52.878;6.168;2023-06-22T00:26:39;16.40;99.90
59148;DHT22;44930;52.878;6.168;2023-06-22T00:29:04;16.70;99.90
59148;DHT22;44930;52.878;6.168;2023-06-22T00:31:30;16.40;99.90
59148;DHT22;44930;52.878;6.168;2023-06-22T00:33:55;15.90;99.90
59148;DHT22;44930;52.878;6.168;2023-06-22T00:36:21;16.80;99.90
59148;DHT22;44930;52.878;6.168;2023-06-22T00:38:46;16.70;99.90
59148;DHT22;44930;52.878;6.168;2023-06-22T00:41:12;16.40;99.90
59148;DHT22;44930;52.878;6.168;2023-06-22T00:43:38;16.10;99.90
59148;DHT22;44930;52.878;6.168;2023-06-22T00:46:03;16.40;99.90
59148;DHT22;44930;52.878;6.168;2023-06-22T00:48:29;16.10;99.90
59148;DHT22;44930;52.878;6.168;2023-06-22T00:50:55;16.10;99.90
59148;DHT22;44930;52.878;6.168;2023-06-22T00:53:21;15.80;99.90
59148;DHT22;44930;52.878;6.168;2023-06-22T00:55:48;16.30;99.90
59148;DHT22;44930;52.878;6.168;2023-06-22T00:58:17;16.00;99.90
59148;DHT22;44930;52.878;6.168;2023-06-22T01:00:47;16.10;99.90
59148;DHT22;44930;52.878;6.168;2023-06-22T01:03:13;16.20;99.90
59148;DHT22;44930;52.878;6.168;2023-06-22T01:05:39;16.10;99.90
59148;DHT22;44930;52.878;6.168;2023-06-22T01:08:37;16.20;99.90
59148;DHT22;44930;52.878;6.168;2023-06-22T01:16:29;15.90;99.90
59148;DHT22;44930;52.878;6.168;2023-06-22T01:18:57;15.70;99.90
59148;DHT22;44930;52.878;6.168;2023-06-22T01:21:26;15.90;99.90
59148;DHT22;44930;52.878;6.168;2023-06-22T01:27:04;15.60;99.90
59148;DHT22;44930;52.878;6.168;2023-06-22T01:29:35;15.40;99.90
59148;DHT22;44930;52.878;6.168;2023-06-22T01:32:02;15.50;99.90
59148;DHT22;44930;52.878;6.168;2023-06-22T01:34:31;15.70;99.90
59148;DHT22;44930;52.878;6.168;2023-06-22T01:36:58;15.50;99.90
59148;DHT22;44930;52.878;6.168;2023-06-22T01:39:24;15.60;99.90
59148;DHT22;44930;52.878;6.168;2023-06-22T01:41:50;15.20;99.90
59148;DHT22;44930;52.878;6.168;2023-06-22T01:44:16;15.10;99.90
59148;DHT22;44930;52.878;6.168;2023-06-22T01:46:43;15.00;99.90
59148;DHT22;44930;52.878;6.168;2023-06-22T01:49:09;15.40;99.90
59148;DHT22;44930;52.878;6.168;2023-06-22T01:51:35;15.50;99.90
59148;DHT22;44930;52.878;6.168;2023-06-22T01:54:01;15.50;99.90
59148;DHT22;44930;52.878;6.168;2023-06-22T01:56:27;15.40;99.90
59148;DHT22;44930;52.878;6.168;2023-06-22T01:59:13;15.50;99.90
59148;DHT22;44930;52.878;6.168;2023-06-22T02:01:43;15.60;99.90
59148;DHT22;44930;52.878;6.168;2023-06-22T02:04:13;15.30;99.90
59148;DHT22;44930;52.878;6.168;2023-06-22T02:06:45;15.40;99.90
59148;DHT22;44930;52.878;6.168;2023-06-22T02:09:15;15.50;99.90
59148;DHT22;44930;52.878;6.168;2023-06-22T02:11:44;14.90;99.90
59148;DHT22;44930;52.878;6.168;2023-06-22T02:14:12;15.60;99.90
59148;DHT22;44930;52.878;6.168;2023-06-22T02:16:38;15.20;99.90
59148;DHT22;44930;52.878;6.168;2023-06-22T02:19:04;15.30;99.90
59148;DHT22;44930;52.878;6.168;2023-06-22T02:21:31;15.10;99.90
59148;DHT22;44930;52.878;6.168;2023-06-22T02:23:57;15.00;99.90
59148;DHT22;44930;52.878;6.168;2023-06-22T02:26:25;15.70;99.90
59148;DHT22;44930;52.878;6.168;2023-06-22T02:28:51;15.00;99.90
59148;DHT22;44930;52.878;6.168;2023-06-22T02:31:17;14.90;99.90
59148;DHT22;44930;52.878;6.168;2023-06-22T02:33:43;14.80;99.90
59148;DHT22;44930;52.878;6.168;2023-06-22T02:36:09;15.00;99.90
59148;DHT22;44930;52.878;6.168;2023-06-22T02:38:38;15.50;99.90
59148;DHT22;44930;52.878;6.168;2023-06-22T02:41:04;14.90;99.90
59148;DHT22;44930;52.878;6.168;2023-06-22T02:43:30;14.90;99.90
59148;DHT22;44930;52.878;6.168;2023-06-22T02:45:55;15.20;99.90
59148;DHT22;44930;52.878;6.168;2023-06-22T02:48:21;15.10;99.90
59148;DHT22;44930;52.878;6.168;2023-06-22T02:50:46;15.10;99.90
59148;DHT22;44930;52.878;6.168;2023-06-22T02:53:12;14.80;99.90
59148;DHT22;44930;52.878;6.168;2023-06-22T02:55:37;14.70;99.90
59148;DHT22;44930;52.878;6.168;2023-06-22T02:58:05;14.60;99.90
59148;DHT22;44930;52.878;6.168;2023-06-22T03:00:31;14.70;99.90
59148;DHT22;44930;52.878;6.168;2023-06-22T03:02:57;14.90;99.90
59148;DHT22;44930;52.878;6.168;2023-06-22T03:05:23;14.50;99.90
59148;DHT22;44930;52.878;6.168;2023-06-22T03:07:49;14.70;99.90
59148;DHT22;44930;52.878;6.168;2023-06-22T03:10:15;14.40;99.90
59148;DHT22;44930;52.878;6.168;2023-06-22T03:12:42;14.80;99.90
59148;DHT22;44930;52.878;6.168;2023-06-22T03:15:10;14.60;99.90
59148;DHT22;44930;52.878;6.168;2023-06-22T03:17:37;14.50;99.90
59148;DHT22;44930;52.878;6.168;2023-06-22T03:22:38;14.80;99.90
59148;DHT22;44930;52.878;6.168;2023-06-22T03:25:04;14.90;99.90
59148;DHT22;44930;52.878;6.168;2023-06-22T03:27:30;14.60;99.90
59148;DHT22;44930;52.878;6.168;2023-06-22T03:29:57;14.50;99.90
59148;DHT22;44930;52.878;6.168;2023-06-22T03:32:23;14.30;99.90
59148;DHT22;44930;52.878;6.168;2023-06-22T03:34:48;14.60;99.90
59148;DHT22;44930;52.878;6.168;2023-06-22T03:37:14;15.00;99.90
59148;DHT22;44930;52.878;6.168;2023-06-22T03:39:41;14.40;99.90
59148;DHT22;44930;52.878;6.168;2023-06-22T03:42:07;14.50;99.90
59148;DHT22;44930;52.878;6.168;2023-06-22T03:44:33;15.00;99.90
59148;DHT22;44930;52.878;6.168;2023-06-22T03:46:58;14.40;99.90
59148;DHT22;44930;52.878;6.168;2023-06-22T03:49:24;14.60;99.90
59148;DHT22;44930;52.878;6.168;2023-06-22T03:51:49;14.50;99.90
59148;DHT22;44930;52.878;6.168;2023-06-22T03:54:15;14.20;99.90
59148;DHT22;44930;52.878;6.168;2023-06-22T03:56:40;14.60;99.90
59148;DHT22;44930;52.878;6.168;2023-06-22T03:59:06;15.00;99.90
59148;DHT22;44930;52.878;6.168;2023-06-22T04:01:32;15.00;99.90
59148;DHT22;44930;52.878;6.168;2023-06-22T04:03:57;14.70;99.90
59148;DHT22;44930;52.878;6.168;2023-06-22T04:06:23;14.70;99.90
59148;DHT22;44930;52.878;6.168;2023-06-22T04:08:48;14.70;99.90
59148;DHT22;44930;52.878;6.168;2023-06-22T04:11:17;15.20;99.90
59148;DHT22;44930;52.878;6.168;2023-06-22T04:13:43;14.90;99.90
59148;DHT22;44930;52.878;6.168;2023-06-22T04:16:08;14.50;99.90
59148;DHT22;44930;52.878;6.168;2023-06-22T04:18:34;14.50;99.90
59148;DHT22;44930;52.878;6.168;2023-06-22T04:21:00;14.80;99.90
59148;DHT22;44930;52.878;6.168;2023-06-22T04:23:25;15.00;99.90
59148;DHT22;44930;52.878;6.168;2023-06-22T04:25:51;14.80;99.90
59148;DHT22;44930;52.878;6.168;2023-06-22T04:28:17;14.80;99.90
59148;DHT22;44930;52.878;6.168;2023-06-22T04:30:42;14.90;99.90
59148;DHT22;44930;52.878;6.168;2023-06-22T04:33:15;15.20;99.90
59148;DHT22;44930;52.878;6.168;2023-06-22T04:35:40;14.80;99.90
59148;DHT22;44930;52.878;6.168;2023-06-22T04:38:12;15.00;99.90
59148;DHT22;44930;52.878;6.168;2023-06-22T04:40:39;15.10;99.90
59148;DHT22;44930;52.878;6.168;2023-06-22T04:43:05;14.90;99.90
59148;DHT22;44930;52.878;6.168;2023-06-22T04:45:32;14.40;99.90
59148;DHT22;44930;52.878;6.168;2023-06-22T04:47:58;15.10;99.90
59148;DHT22;44930;52.878;6.168;2023-06-22T04:50:24;15.10;99.90
59148;DHT22;44930;52.878;6.168;2023-06-22T04:52:50;15.50;99.90
59148;DHT22;44930;52.878;6.168;2023-06-22T04:55:16;15.10;99.90
59148;DHT22;44930;52.878;6.168;2023-06-22T04:57:45;15.40;99.90
59148;DHT22;44930;52.878;6.168;2023-06-22T05:00:19;15.00;99.90
59148;DHT22;44930;52.878;6.168;2023-06-22T05:02:46;15.30;99.90
59148;DHT22;44930;52.878;6.168;2023-06-22T05:05:13;15.40;99.90
59148;DHT22;44930;52.878;6.168;2023-06-22T05:07:46;15.30;99.90
59148;DHT22;44930;52.878;6.168;2023-06-22T05:10:14;15.40;99.90
59148;DHT22;44930;52.878;6.168;2023-06-22T05:12:40;15.70;99.90
59148;DHT22;44930;52.878;6.168;2023-06-22T05:15:07;15.50;99.90
59148;DHT22;44930;52.878;6.168;2023-06-22T05:17:33;15.90;99.90
59148;DHT22;44930;52.878;6.168;2023-06-22T05:19:59;15.70;99.90
59148;DHT22;44930;52.878;6.168;2023-06-22T05:22:25;16.00;99.90
59148;DHT22;44930;52.878;6.168;2023-06-22T05:24:50;15.60;99.90
59148;DHT22;44930;52.878;6.168;2023-06-22T05:27:16;16.50;99.90
59148;DHT22;44930;52.878;6.168;2023-06-22T05:29:41;15.60;99.90
59148;DHT22;44930;52.878;6.168;2023-06-22T05:32:10;16.30;99.90
59148;DHT22;44930;52.878;6.168;2023-06-22T05:34:35;16.10;99.90
59148;DHT22;44930;52.878;6.168;2023-06-22T05:37:02;16.70;99.90
59148;DHT22;44930;52.878;6.168;2023-06-22T05:39:28;16.30;99.90
59148;DHT22;44930;52.878;6.168;2023-06-22T05:41:54;16.50;99.90
59148;DHT22;44930;52.878;6.168;2023-06-22T05:44:19;16.10;99.90
59148;DHT22;44930;52.878;6.168;2023-06-22T05:46:45;16.30;99.90
59148;DHT22;44930;52.878;6.168;2023-06-22T05:49:12;16.20;99.90
59148;DHT22;44930;52.878;6.168;2023-06-22T05:51:38;16.90;99.90
59148;DHT22;44930;52.878;6.168;2023-06-22T05:54:04;16.80;99.90
59148;DHT22;44930;52.878;6.168;2023-06-22T05:56:29;16.60;99.90
59148;DHT22;44930;52.878;6.168;2023-06-22T05:58:55;17.10;99.90
59148;DHT22;44930;52.878;6.168;2023-06-22T06:01:21;17.20;99.90
59148;DHT22;44930;52.878;6.168;2023-06-22T06:03:46;17.20;99.90
59148;DHT22;44930;52.878;6.168;2023-06-22T06:06:12;17.50;99.90
59148;DHT22;44930;52.878;6.168;2023-06-22T06:08:38;17.20;99.90
59148;DHT22;44930;52.878;6.168;2023-06-22T06:11:04;17.60;99.90
59148;DHT22;44930;52.878;6.168;2023-06-22T06:13:30;17.60;99.90
59148;DHT22;44930;52.878;6.168;2023-06-22T06:15:56;17.70;99.90
59148;DHT22;44930;52.878;6.168;2023-06-22T06:18:22;17.70;99.90
59148;DHT22;44930;52.878;6.168;2023-06-22T06:20:48;17.80;99.90
59148;DHT22;44930;52.878;6.168;2023-06-22T06:23:14;17.90;99.90
59148;DHT22;44930;52.878;6.168;2023-06-22T06:25:39;18.00;99.90
59148;DHT22;44930;52.878;6.168;2023-06-22T06:28:05;18.50;99.90
59148;DHT22;44930;52.878;6.168;2023-06-22T06:30:31;18.30;99.90
59148;DHT22;44930;52.878;6.168;2023-06-22T06:32:56;18.40;99.90
59148;DHT22;44930;52.878;6.168;2023-06-22T06:35:22;18.30;99.90
59148;DHT22;44930;52.878;6.168;2023-06-22T06:37:49;18.60;99.90
59148;DHT22;44930;52.878;6.168;2023-06-22T06:40:16;18.20;99.90
59148;DHT22;44930;52.878;6.168;2023-06-22T06:42:46;18.10;99.90
59148;DHT22;44930;52.878;6.168;2023-06-22T06:45:17;18.60;99.90
59148;DHT22;44930;52.878;6.168;2023-06-22T06:47:43;18.80;99.90
59148;DHT22;44930;52.878;6.168;2023-06-22T06:50:09;18.60;99.90
59148;DHT22;44930;52.878;6.168;2023-06-22T06:52:35;18.70;99.90
59148;DHT22;44930;52.878;6.168;2023-06-22T06:55:00;19.00;99.90
59148;DHT22;44930;52.878;6.168;2023-06-22T06:57:26;19.10;99.90
59148;DHT22;44930;52.878;6.168;2023-06-22T06:59:56;19.40;99.90
59148;DHT22;44930;52.878;6.168;2023-06-22T07:02:22;19.20;99.90
59148;DHT22;44930;52.878;6.168;2023-06-22T07:04:48;19.40;99.90
59148;DHT22;44930;52.878;6.168;2023-06-22T07:07:14;19.40;99.90
59148;DHT22;44930;52.878;6.168;2023-06-22T07:09:39;19.40;99.90
59148;DHT22;44930;52.878;6.168;2023-06-22T07:12:05;19.70;99.90
59148;DHT22;44930;52.878;6.168;2023-06-22T07:14:31;19.60;99.90
59148;DHT22;44930;52.878;6.168;2023-06-22T07:16:57;19.50;99.90
59148;DHT22;44930;52.878;6.168;2023-06-22T07:19:27;19.40;99.90
59148;DHT22;44930;52.878;6.168;2023-06-22T07:21:53;19.30;99.90
59148;DHT22;44930;52.878;6.168;2023-06-22T07:24:22;19.10;99.90
59148;DHT22;44930;52.878;6.168;2023-06-22T07:26:48;19.40;99.90
59148;DHT22;44930;52.878;6.168;2023-06-22T07:29:16;21.20;99.90
59148;DHT22;44930;52.878;6.168;2023-06-22T07:31:42;19.60;99.90
59148;DHT22;44930;52.878;6.168;2023-06-22T07:34:07;19.50;99.90
59148;DHT22;44930;52.878;6.168;2023-06-22T07:36:33;20.30;99.90
59148;DHT22;44930;52.878;6.168;2023-06-22T07:39:01;19.90;99.90
59148;DHT22;44930;52.878;6.168;2023-06-22T07:41:28;20.40;99.90
59148;DHT22;44930;52.878;6.168;2023-06-22T07:43:53;20.10;99.90
59148;DHT22;44930;52.878;6.168;2023-06-22T07:46:19;20.40;99.90
59148;DHT22;44930;52.878;6.168;2023-06-22T07:48:44;20.30;99.90
59148;DHT22;44930;52.878;6.168;2023-06-22T07:51:10;20.70;99.90
59148;DHT22;44930;52.878;6.168;2023-06-22T07:53:42;20.60;99.90
59148;DHT22;44930;52.878;6.168;2023-06-22T07:56:11;20.20;99.90
59148;DHT22;44930;52.878;6.168;2023-06-22T07:58:37;20.90;99.90
59148;DHT22;44930;52.878;6.168;2023-06-22T08:01:03;20.40;99.90
59148;DHT22;44930;52.878;6.168;2023-06-22T08:03:29;20.70;99.90
59148;DHT22;44930;52.878;6.168;2023-06-22T08:05:55;21.10;99.90
59148;DHT22;44930;52.878;6.168;2023-06-22T08:08:20;20.80;99.90
59148;DHT22;44930;52.878;6.168;2023-06-22T08:10:46;21.30;99.90
59148;DHT22;44930;52.878;6.168;2023-06-22T08:13:11;20.60;99.90
59148;DHT22;44930;52.878;6.168;2023-06-22T08:15:37;21.10;99.90
59148;DHT22;44930;52.878;6.168;2023-06-22T08:18:03;21.10;99.90
59148;DHT22;44930;52.878;6.168;2023-06-22T08:20:28;21.60;99.90
59148;DHT22;44930;52.878;6.168;2023-06-22T08:22:55;23.00;99.90
59148;DHT22;44930;52.878;6.168;2023-06-22T08:25:23;21.30;99.90
59148;DHT22;44930;52.878;6.168;2023-06-22T08:27:49;21.30;99.90
59148;DHT22;44930;52.878;6.168;2023-06-22T08:30:15;21.20;99.90
59148;DHT22;44930;52.878;6.168;2023-06-22T08:32:41;21.30;99.90
59148;DHT22;44930;52.878;6.168;2023-06-22T08:35:07;21.80;99.90
59148;DHT22;44930;52.878;6.168;2023-06-22T08:37:34;21.20;99.90
59148;DHT22;44930;52.878;6.168;2023-06-22T08:40:04;21.60;99.90
59148;DHT22;44930;52.878;6.168;2023-06-22T08:42:30;21.40;99.90
59148;DHT22;44930;52.878;6.168;2023-06-22T08:44:56;21.90;99.90
59148;DHT22;44930;52.878;6.168;2023-06-22T08:47:22;23.10;99.90
59148;DHT22;44930;52.878;6.168;2023-06-22T08:49:48;22.20;99.90
59148;DHT22;44930;52.878;6.168;2023-06-22T08:52:14;22.00;99.90
59148;DHT22;44930;52.878;6.168;2023-06-22T08:54:39;22.10;99.90
59148;DHT22;44930;52.878;6.168;2023-06-22T08:57:05;22.00;99.90
59148;DHT22;44930;52.878;6.168;2023-06-22T08:59:31;21.80;99.90
59148;DHT22;44930;52.878;6.168;2023-06-22T09:01:57;22.60;99.90
59148;DHT22;44930;52.878;6.168;2023-06-22T09:04:22;22.50;99.90
59148;DHT22;44930;52.878;6.168;2023-06-22T09:06:48;22.40;99.90
59148;DHT22;44930;52.878;6.168;2023-06-22T09:09:16;22.90;99.90
59148;DHT22;44930;52.878;6.168;2023-06-22T09:11:42;22.60;99.90
59148;DHT22;44930;52.878;6.168;2023-06-22T09:14:09;24.10;99.90
59148;DHT22;44930;52.878;6.168;2023-06-22T09:16:34;22.70;99.90
59148;DHT22;44930;52.878;6.168;2023-06-22T09:19:00;22.40;99.90
59148;DHT22;44930;52.878;6.168;2023-06-22T09:21:25;22.50;99.90
59148;DHT22;44930;52.878;6.168;2023-06-22T09:23:51;23.50;99.90
59148;DHT22;44930;52.878;6.168;2023-06-22T09:26:17;23.40;99.90
59148;DHT22;44930;52.878;6.168;2023-06-22T09:28:43;23.00;99.90
59148;DHT22;44930;52.878;6.168;2023-06-22T09:31:09;22.60;99.90
59148;DHT22;44930;52.878;6.168;2023-06-22T09:33:36;22.70;99.90
59148;DHT22;44930;52.878;6.168;2023-06-22T09:36:01;23.00;99.90
59148;DHT22;44930;52.878;6.168;2023-06-22T09:38:27;23.30;99.90
59148;DHT22;44930;52.878;6.168;2023-06-22T09:40:52;24.30;99.90
59148;DHT22;44930;52.878;6.168;2023-06-22T09:43:18;23.40;99.90
59148;DHT22;44930;52.878;6.168;2023-06-22T09:45:43;23.50;99.90
59148;DHT22;44930;52.878;6.168;2023-06-22T09:48:09;23.50;99.90
59148;DHT22;44930;52.878;6.168;2023-06-22T09:50:37;23.80;99.90
59148;DHT22;44930;52.878;6.168;2023-06-22T09:53:03;24.90;99.90
59148;DHT22;44930;52.878;6.168;2023-06-22T09:55:28;23.50;99.90
59148;DHT22;44930;52.878;6.168;2023-06-22T09:57:54;23.70;99.90
59148;DHT22;44930;52.878;6.168;2023-06-22T10:00:21;23.90;99.90
59148;DHT22;44930;52.878;6.168;2023-06-22T10:02:47;23.30;99.90
59148;DHT22;44930;52.878;6.168;2023-06-22T10:05:13;23.50;99.90
59148;DHT22;44930;52.878;6.168;2023-06-22T10:07:39;24.30;99.90
59148;DHT22;44930;52.878;6.168;2023-06-22T10:10:08;23.20;99.90
59148;DHT22;44930;52.878;6.168;2023-06-22T10:12:34;23.10;99.90
59148;DHT22;44930;52.878;6.168;2023-06-22T10:15:00;23.00;99.90
59148;DHT22;44930;52.878;6.168;2023-06-22T10:17:25;23.80;99.90
59148;DHT22;44930;52.878;6.168;2023-06-22T10:19:51;23.70;99.90
59148;DHT22;44930;52.878;6.168;2023-06-22T10:22:17;23.40;99.90
59148;DHT22;44930;52.878;6.168;2023-06-22T10:24:43;23.90;99.90
59148;DHT22;44930;52.878;6.168;2023-06-22T10:27:12;23.70;99.90
59148;DHT22;44930;52.878;6.168;2023-06-22T10:29:39;23.90;99.90
59148;DHT22;44930;52.878;6.168;2023-06-22T10:32:05;24.20;99.90
59148;DHT22;44930;52.878;6.168;2023-06-22T10:34:30;24.70;99.90
59148;DHT22;44930;52.878;6.168;2023-06-22T10:36:56;25.10;99.90
59148;DHT22;44930;52.878;6.168;2023-06-22T10:39:21;24.80;99.90
59148;DHT22;44930;52.878;6.168;2023-06-22T10:41:47;25.40;99.90
59148;DHT22;44930;52.878;6.168;2023-06-22T10:44:12;24.80;99.90
59148;DHT22;44930;52.878;6.168;2023-06-22T10:46:39;24.80;99.90
59148;DHT22;44930;52.878;6.168;2023-06-22T10:49:04;24.60;99.90
59148;DHT22;44930;52.878;6.168;2023-06-22T10:51:30;24.70;99.90
59148;DHT22;44930;52.878;6.168;2023-06-22T10:53:57;25.10;99.90
59148;DHT22;44930;52.878;6.168;2023-06-22T10:56:22;24.30;99.90
59148;DHT22;44930;52.878;6.168;2023-06-22T10:58:48;26.00;99.90
59148;DHT22;44930;52.878;6.168;2023-06-22T11:01:14;25.40;99.90
59148;DHT22;44930;52.878;6.168;2023-06-22T11:03:39;24.50;99.90
59148;DHT22;44930;52.878;6.168;2023-06-22T11:06:05;24.50;99.90
59148;DHT22;44930;52.878;6.168;2023-06-22T11:08:30;24.40;99.90
59148;DHT22;44930;52.878;6.168;2023-06-22T11:10:56;24.40;99.90
59148;DHT22;44930;52.878;6.168;2023-06-22T11:13:21;24.70;99.90
59148;DHT22;44930;52.878;6.168;2023-06-22T11:15:47;25.00;99.90
59148;DHT22;44930;52.878;6.168;2023-06-22T11:18:13;24.70;99.90
59148;DHT22;44930;52.878;6.168;2023-06-22T11:20:38;24.70;99.90
59148;DHT22;44930;52.878;6.168;2023-06-22T11:23:05;24.60;99.90
59148;DHT22;44930;52.878;6.168;2023-06-22T11:25:31;24.80;99.90
59148;DHT22;44930;52.878;6.168;2023-06-22T11:27:57;24.70;99.90
59148;DHT22;44930;52.878;6.168;2023-06-22T11:30:23;24.40;99.90
59148;DHT22;44930;52.878;6.168;2023-06-22T11:32:48;24.10;99.90
59148;DHT22;44930;52.878;6.168;2023-06-22T11:35:14;24.30;99.90
59148;DHT22;44930;52.878;6.168;2023-06-22T11:37:39;24.80;99.90
59148;DHT22;44930;52.878;6.168;2023-06-22T11:40:05;25.40;99.90
59148;DHT22;44930;52.878;6.168;2023-06-22T11:42:34;24.40;99.90
59148;DHT22;44930;52.878;6.168;2023-06-22T11:44:59;24.80;99.90
59148;DHT22;44930;52.878;6.168;2023-06-22T11:47:25;24.80;99.90
59148;DHT22;44930;52.878;6.168;2023-06-22T11:49:50;24.10;99.90
59148;DHT22;44930;52.878;6.168;2023-06-22T11:52:16;24.20;99.90
59148;DHT22;44930;52.878;6.168;2023-06-22T11:54:43;24.20;99.90
59148;DHT22;44930;52.878;6.168;2023-06-22T11:57:09;24.30;99.90
59148;DHT22;44930;52.878;6.168;2023-06-22T11:59:34;24.30;99.90
59148;DHT22;44930;52.878;6.168;2023-06-22T12:02:00;25.90;99.90
59148;DHT22;44930;52.878;6.168;2023-06-22T12:04:25;24.50;99.90
59148;DHT22;44930;52.878;6.168;2023-06-22T12:06:51;24.80;99.90
59148;DHT22;44930;52.878;6.168;2023-06-22T12:09:17;24.20;99.90
59148;DHT22;44930;52.878;6.168;2023-06-22T12:11:42;24.30;99.90
59148;DHT22;44930;52.878;6.168;2023-06-22T12:14:08;24.60;99.90
59148;DHT22;44930;52.878;6.168;2023-06-22T12:16:33;24.90;99.90
59148;DHT22;44930;52.878;6.168;2023-06-22T12:18:59;24.80;99.90
59148;DHT22;44930;52.878;6.168;2023-06-22T12:21:24;24.80;99.90
59148;DHT22;44930;52.878;6.168;2023-06-22T12:23:50;24.70;99.90
59148;DHT22;44930;52.878;6.168;2023-06-22T12:26:16;24.40;99.90
59148;DHT22;44930;52.878;6.168;2023-06-22T12:28:41;24.70;99.90
59148;DHT22;44930;52.878;6.168;2023-06-22T12:31:07;25.00;99.90
59148;DHT22;44930;52.878;6.168;2023-06-22T12:33:32;25.00;99.90
59148;DHT22;44930;52.878;6.168;2023-06-22T12:35:58;25.00;99.90
59148;DHT22;44930;52.878;6.168;2023-06-22T12:38:24;24.60;99.90
59148;DHT22;44930;52.878;6.168;2023-06-22T12:40:51;25.30;99.90
59148;DHT22;44930;52.878;6.168;2023-06-22T12:43:16;25.20;99.90
59148;DHT22;44930;52.878;6.168;2023-06-22T12:45:42;25.20;99.90
59148;DHT22;44930;52.878;6.168;2023-06-22T12:48:07;25.00;99.90
59148;DHT22;44930;52.878;6.168;2023-06-22T12:50:34;24.90;99.90
59148;DHT22;44930;52.878;6.168;2023-06-22T12:52:59;25.10;99.90
59148;DHT22;44930;52.878;6.168;2023-06-22T12:55:27;25.30;99.90
59148;DHT22;44930;52.878;6.168;2023-06-22T12:57:53;24.90;99.90
59148;DHT22;44930;52.878;6.168;2023-06-22T13:00:18;26.10;99.90
59148;DHT22;44930;52.878;6.168;2023-06-22T13:02:45;24.70;99.90
59148;DHT22;44930;52.878;6.168;2023-06-22T13:05:10;25.10;99.90
59148;DHT22;44930;52.878;6.168;2023-06-22T13:07:36;24.20;99.90
59148;DHT22;44930;52.878;6.168;2023-06-22T13:10:02;24.40;99.90
59148;DHT22;44930;52.878;6.168;2023-06-22T13:12:27;24.50;99.90
59148;DHT22;44930;52.878;6.168;2023-06-22T13:14:53;25.00;99.90
59148;DHT22;44930;52.878;6.168;2023-06-22T13:17:19;24.20;99.90
59148;DHT22;44930;52.878;6.168;2023-06-22T13:19:44;24.20;99.90
59148;DHT22;44930;52.878;6.168;2023-06-22T13:22:48;24.30;99.90
59148;DHT22;44930;52.878;6.168;2023-06-22T13:25:14;24.30;99.90
59148;DHT22;44930;52.878;6.168;2023-06-22T13:27:44;24.10;99.90
59148;DHT22;44930;52.878;6.168;2023-06-22T13:30:10;24.40;99.90
59148;DHT22;44930;52.878;6.168;2023-06-22T13:32:36;24.00;99.90
59148;DHT22;44930;52.878;6.168;2023-06-22T13:35:02;24.50;99.90
59148;DHT22;44930;52.878;6.168;2023-06-22T13:37:27;23.80;99.90
59148;DHT22;44930;52.878;6.168;2023-06-22T13:39:53;24.70;99.90
59148;DHT22;44930;52.878;6.168;2023-06-22T13:42:21;24.00;99.90
59148;DHT22;44930;52.878;6.168;2023-06-22T13:44:46;23.50;99.90
59148;DHT22;44930;52.878;6.168;2023-06-22T13:47:12;24.50;99.90
59148;DHT22;44930;52.878;6.168;2023-06-22T13:49:37;23.90;99.90
59148;DHT22;44930;52.878;6.168;2023-06-22T13:52:03;23.70;99.90
59148;DHT22;44930;52.878;6.168;2023-06-22T13:54:29;23.60;99.90
59148;DHT22;44930;52.878;6.168;2023-06-22T13:56:55;23.60;99.90
59148;DHT22;44930;52.878;6.168;2023-06-22T13:59:20;25.30;99.90
59148;DHT22;44930;52.878;6.168;2023-06-22T14:01:46;23.70;99.90
59148;DHT22;44930;52.878;6.168;2023-06-22T14:04:12;23.60;99.90
59148;DHT22;44930;52.878;6.168;2023-06-22T14:06:38;24.00;99.90
59148;DHT22;44930;52.878;6.168;2023-06-22T14:09:03;24.00;99.90
59148;DHT22;44930;52.878;6.168;2023-06-22T14:11:29;23.60;99.90
59148;DHT22;44930;52.878;6.168;2023-06-22T14:13:54;24.00;99.90
59148;DHT22;44930;52.878;6.168;2023-06-22T14:16:20;24.00;99.90
59148;DHT22;44930;52.878;6.168;2023-06-22T14:18:45;23.60;99.90
59148;DHT22;44930;52.878;6.168;2023-06-22T14:21:11;23.20;99.90
59148;DHT22;44930;52.878;6.168;2023-06-22T14:23:37;23.30;99.90
59148;DHT22;44930;52.878;6.168;2023-06-22T14:26:03;24.60;99.90
59148;DHT22;44930;52.878;6.168;2023-06-22T14:28:29;23.90;99.90
59148;DHT22;44930;52.878;6.168;2023-06-22T14:30:54;23.50;99.90
59148;DHT22;44930;52.878;6.168;2023-06-22T14:33:20;24.30;99.90
59148;DHT22;44930;52.878;6.168;2023-06-22T14:35:45;24.30;99.90
59148;DHT22;44930;52.878;6.168;2023-06-22T14:38:11;23.70;99.90
59148;DHT22;44930;52.878;6.168;2023-06-22T14:40:36;23.40;99.90
59148;DHT22;44930;52.878;6.168;2023-06-22T14:43:02;22.80;99.90
59148;DHT22;44930;52.878;6.168;2023-06-22T14:45:28;22.90;99.90
59148;DHT22;44930;52.878;6.168;2023-06-22T14:47:53;22.90;99.90
59148;DHT22;44930;52.878;6.168;2023-06-22T14:50:19;22.40;99.90
59148;DHT22;44930;52.878;6.168;2023-06-22T14:52:44;22.80;99.90
59148;DHT22;44930;52.878;6.168;2023-06-22T14:55:10;22.50;99.90
59148;DHT22;44930;52.878;6.168;2023-06-22T14:57:35;22.50;99.90
59148;DHT22;44930;52.878;6.168;2023-06-22T15:00:01;22.50;99.90
59148;DHT22;44930;52.878;6.168;2023-06-22T15:02:27;22.20;99.90
59148;DHT22;44930;52.878;6.168;2023-06-22T15:04:53;22.60;99.90
59148;DHT22;44930;52.878;6.168;2023-06-22T15:07:19;22.00;99.90
59148;DHT22;44930;52.878;6.168;2023-06-22T15:09:45;21.80;99.90
59148;DHT22;44930;52.878;6.168;2023-06-22T15:12:11;22.60;99.90
59148;DHT22;44930;52.878;6.168;2023-06-22T15:14:40;22.40;99.90
59148;DHT22;44930;52.878;6.168;2023-06-22T15:17:07;22.10;99.90
59148;DHT22;44930;52.878;6.168;2023-06-22T15:19:36;21.90;99.90
59148;DHT22;44930;52.878;6.168;2023-06-22T15:22:06;22.10;99.90
59148;DHT22;44930;52.878;6.168;2023-06-22T15:24:32;22.10;99.90
59148;DHT22;44930;52.878;6.168;2023-06-22T15:26:58;21.90;99.90
59148;DHT22;44930;52.878;6.168;2023-06-22T15:29:23;22.00;99.90
59148;DHT22;44930;52.878;6.168;2023-06-22T15:31:49;22.00;99.90
59148;DHT22;44930;52.878;6.168;2023-06-22T15:34:15;22.20;99.90
59148;DHT22;44930;52.878;6.168;2023-06-22T15:36:40;21.70;99.90